sensor_id;sensor_type;location;lat;lon;timestamp;temperature;humidity
25410;DHT22;13339;50.840;4.346;2023-07-30T00:00:48;19.30;99.90
25410;DHT22;13339;50.840;4.346;2023-07-30T00:03:15;19.10;99.90
25410;DHT22;13339;50.840;4.346;2023-07-30T00:05:41;19.10;99.90
25410;DHT22;13339;50.840;4.346;2023-07-30T00:08:06;19.10;99.90
25410;DHT22;13339;50.840;4.346;2023-07-30T00:10:32;19.10;99.90
25410;DHT22;13339;50.840;4.346;2023-07-30T00:12:57;19.10;99.90
25410;DHT22;13339;50.840;4.346;2023-07-30T00:15:23;19.10;99.90
25410;DHT22;13339;50.840;4.346;2023-07-30T00:17:49;19.00;99.90
25410;DHT22;13339;50.840;4.346;2023-07-30T00:20:14;19.00;99.90
25410;DHT22;13339;50.840;4.346;2023-07-30T00:22:40;19.00;99.90
25410;DHT22;13339;50.840;4.346;2023-07-30T00:25:05;18.90;99.90
25410;DHT22;13339;50.840;4.346;2023-07-30T00:27:31;18.90;99.90
25410;DHT22;13339;50.840;4.346;2023-07-30T00:29:57;18.80;99.90
25410;DHT22;13339;50.840;4.346;2023-07-30T00:32:22;18.80;99.90
25410;DHT22;13339;50.840;4.346;2023-07-30T00:34:48;18.80;99.90
25410;DHT22;13339;50.840;4.346;2023-07-30T00:37:14;18.80;99.90
25410;DHT22;13339;50.840;4.346;2023-07-30T00:39:39;18.80;99.90
25410;DHT22;13339;50.840;4.346;2023-07-30T00:42:05;18.80;99.90
25410;DHT22;13339;50.840;4.346;2023-07-30T00:44:31;18.80;99.90
25410;DHT22;13339;50.840;4.346;2023-07-30T00:46:56;18.80;99.90
25410;DHT22;13339;50.840;4.346;2023-07-30T00:49:22;18.80;99.90
25410;DHT22;13339;50.840;4.346;2023-07-30T00:51:48;18.80;99.90
25410;DHT22;13339;50.840;4.346;2023-07-30T00:54:13;18.80;99.90
25410;DHT22;13339;50.840;4.346;2023-07-30T00:56:43;18.80;99.90
25410;DHT22;13339;50.840;4.346;2023-07-30T00:59:11;18.80;99.90
25410;DHT22;13339;50.840;4.346;2023-07-30T01:01:37;18.90;99.90
25410;DHT22;13339;50.840;4.346;2023-07-30T01:04:04;18.90;99.90
25410;DHT22;13339;50.840;4.346;2023-07-30T01:06:30;18.90;99.90
25410;DHT22;13339;50.840;4.346;2023-07-30T01:08:55;18.90;99.90
25410;DHT22;13339;50.840;4.346;2023-07-30T01:11:21;19.00;99.90
25410;DHT22;13339;50.840;4.346;2023-07-30T01:13:47;19.00;99.90
25410;DHT22;13339;50.840;4.346;2023-07-30T01:16:13;19.10;99.90
25410;DHT22;13339;50.840;4.346;2023-07-30T01:18:39;19.10;99.90
25410;DHT22;13339;50.840;4.346;2023-07-30T01:21:04;19.10;99.90
25410;DHT22;13339;50.840;4.346;2023-07-30T01:23:30;18.90;99.90
25410;DHT22;13339;50.840;4.346;2023-07-30T01:26:03;18.80;99.90
25410;DHT22;13339;50.840;4.346;2023-07-30T01:28:46;18.90;99.90
25410;DHT22;13339;50.840;4.346;2023-07-30T01:31:15;18.90;99.90
25410;DHT22;13339;50.840;4.346;2023-07-30T01:33:41;19.00;99.90
25410;DHT22;13339;50.840;4.346;2023-07-30T01:36:10;19.00;99.90
25410;DHT22;13339;50.840;4.346;2023-07-30T01:38:40;19.00;99.90
25410;DHT22;13339;50.840;4.346;2023-07-30T01:41:06;19.00;99.90
25410;DHT22;13339;50.840;4.346;2023-07-30T01:43:33;19.00;99.90
25410;DHT22;13339;50.840;4.346;2023-07-30T01:45:58;19.10;99.90
25410;DHT22;13339;50.840;4.346;2023-07-30T01:48:24;19.10;99.90
25410;DHT22;13339;50.840;4.346;2023-07-30T01:50:49;19.10;99.90
25410;DHT22;13339;50.840;4.346;2023-07-30T01:53:15;19.20;99.90
25410;DHT22;13339;50.840;4.346;2023-07-30T01:55:40;19.20;99.90
25410;DHT22;13339;50.840;4.346;2023-07-30T01:58:14;19.20;99.90
25410;DHT22;13339;50.840;4.346;2023-07-30T02:00:40;19.20;99.90
25410;DHT22;13339;50.840;4.346;2023-07-30T02:03:06;19.30;99.90
25410;DHT22;13339;50.840;4.346;2023-07-30T02:05:32;19.20;99.90
25410;DHT22;13339;50.840;4.346;2023-07-30T02:07:58;19.20;99.90
25410;DHT22;13339;50.840;4.346;2023-07-30T02:10:25;19.10;99.90
25410;DHT22;13339;50.840;4.346;2023-07-30T02:12:51;19.10;99.90
25410;DHT22;13339;50.840;4.346;2023-07-30T02:15:16;19.10;99.90
25410;DHT22;13339;50.840;4.346;2023-07-30T02:17:42;18.90;99.90
25410;DHT22;13339;50.840;4.346;2023-07-30T02:20:08;18.90;99.90
25410;DHT22;13339;50.840;4.346;2023-07-30T02:22:34;19.00;99.90
25410;DHT22;13339;50.840;4.346;2023-07-30T02:25:00;19.00;99.90
25410;DHT22;13339;50.840;4.346;2023-07-30T02:27:25;19.10;99.90
25410;DHT22;13339;50.840;4.346;2023-07-30T02:29:51;19.10;99.90
25410;DHT22;13339;50.840;4.346;2023-07-30T02:32:16;19.00;99.90
25410;DHT22;13339;50.840;4.346;2023-07-30T02:34:42;18.90;99.90
25410;DHT22;13339;50.840;4.346;2023-07-30T02:37:08;19.00;99.90
25410;DHT22;13339;50.840;4.346;2023-07-30T02:39:33;18.90;99.90
25410;DHT22;13339;50.840;4.346;2023-07-30T02:41:59;18.90;99.90
25410;DHT22;13339;50.840;4.346;2023-07-30T02:44:24;19.00;99.90
25410;DHT22;13339;50.840;4.346;2023-07-30T02:46:50;18.80;99.90
25410;DHT22;13339;50.840;4.346;2023-07-30T02:49:15;18.80;99.90
25410;DHT22;13339;50.840;4.346;2023-07-30T02:51:41;18.90;99.90
25410;DHT22;13339;50.840;4.346;2023-07-30T02:54:08;18.90;99.90
25410;DHT22;13339;50.840;4.346;2023-07-30T02:56:35;18.80;99.90
25410;DHT22;13339;50.840;4.346;2023-07-30T02:59:01;18.70;99.90
25410;DHT22;13339;50.840;4.346;2023-07-30T03:01:27;18.70;99.90
25410;DHT22;13339;50.840;4.346;2023-07-30T03:03:52;18.70;99.90
25410;DHT22;13339;50.840;4.346;2023-07-30T03:06:18;18.80;99.90
25410;DHT22;13339;50.840;4.346;2023-07-30T03:08:44;18.80;99.90
25410;DHT22;13339;50.840;4.346;2023-07-30T03:11:09;18.80;99.90
25410;DHT22;13339;50.840;4.346;2023-07-30T03:13:35;18.80;99.90
25410;DHT22;13339;50.840;4.346;2023-07-30T03:16:00;18.80;99.90
25410;DHT22;13339;50.840;4.346;2023-07-30T03:18:26;18.90;99.90
25410;DHT22;13339;50.840;4.346;2023-07-30T03:20:56;19.00;99.90
25410;DHT22;13339;50.840;4.346;2023-07-30T03:23:22;19.00;99.90
25410;DHT22;13339;50.840;4.346;2023-07-30T03:25:47;18.80;99.90
25410;DHT22;13339;50.840;4.346;2023-07-30T03:28:13;18.70;99.90
25410;DHT22;13339;50.840;4.346;2023-07-30T03:30:39;18.70;99.90
25410;DHT22;13339;50.840;4.346;2023-07-30T03:33:04;18.80;99.90
25410;DHT22;13339;50.840;4.346;2023-07-30T03:35:30;18.80;99.90
25410;DHT22;13339;50.840;4.346;2023-07-30T03:37:55;18.80;99.90
25410;DHT22;13339;50.840;4.346;2023-07-30T03:40:22;18.90;99.90
25410;DHT22;13339;50.840;4.346;2023-07-30T03:42:49;18.80;99.90
25410;DHT22;13339;50.840;4.346;2023-07-30T03:45:14;18.80;99.90
25410;DHT22;13339;50.840;4.346;2023-07-30T03:47:40;18.90;99.90
25410;DHT22;13339;50.840;4.346;2023-07-30T03:50:06;18.80;99.90
25410;DHT22;13339;50.840;4.346;2023-07-30T03:52:31;18.90;99.90
25410;DHT22;13339;50.840;4.346;2023-07-30T03:54:57;19.00;99.90
25410;DHT22;13339;50.840;4.346;2023-07-30T03:57:22;19.00;99.90
25410;DHT22;13339;50.840;4.346;2023-07-30T03:59:48;18.90;99.90
25410;DHT22;13339;50.840;4.346;2023-07-30T04:02:14;18.90;99.90
25410;DHT22;13339;50.840;4.346;2023-07-30T04:04:41;18.90;99.90
25410;DHT22;13339;50.840;4.346;2023-07-30T04:07:10;19.00;99.90
25410;DHT22;13339;50.840;4.346;2023-07-30T04:09:36;18.90;99.90
25410;DHT22;13339;50.840;4.346;2023-07-30T04:12:01;18.80;99.90
25410;DHT22;13339;50.840;4.346;2023-07-30T04:14:27;18.70;99.90
25410;DHT22;13339;50.840;4.346;2023-07-30T04:16:53;18.70;99.90
25410;DHT22;13339;50.840;4.346;2023-07-30T04:19:18;18.60;99.90
25410;DHT22;13339;50.840;4.346;2023-07-30T04:21:44;18.70;99.90
25410;DHT22;13339;50.840;4.346;2023-07-30T04:24:10;18.70;99.90
25410;DHT22;13339;50.840;4.346;2023-07-30T04:26:35;18.60;99.90
25410;DHT22;13339;50.840;4.346;2023-07-30T04:29:01;18.70;99.90
25410;DHT22;13339;50.840;4.346;2023-07-30T04:31:27;18.70;99.90
25410;DHT22;13339;50.840;4.346;2023-07-30T04:33:52;18.70;99.90
25410;DHT22;13339;50.840;4.346;2023-07-30T04:36:18;18.60;99.90
25410;DHT22;13339;50.840;4.346;2023-07-30T04:38:43;18.60;99.90
25410;DHT22;13339;50.840;4.346;2023-07-30T04:41:09;18.60;99.90
25410;DHT22;13339;50.840;4.346;2023-07-30T04:43:34;18.60;99.90
25410;DHT22;13339;50.840;4.346;2023-07-30T04:46:00;18.60;99.90
25410;DHT22;13339;50.840;4.346;2023-07-30T04:48:26;18.70;99.90
25410;DHT22;13339;50.840;4.346;2023-07-30T04:50:51;18.70;99.90
25410;DHT22;13339;50.840;4.346;2023-07-30T04:53:17;18.70;99.90
25410;DHT22;13339;50.840;4.346;2023-07-30T04:55:44;18.70;99.90
25410;DHT22;13339;50.840;4.346;2023-07-30T04:58:09;18.60;99.90
25410;DHT22;13339;50.840;4.346;2023-07-30T05:00:35;18.50;99.90
25410;DHT22;13339;50.840;4.346;2023-07-30T05:03:00;18.60;99.90
25410;DHT22;13339;50.840;4.346;2023-07-30T05:05:26;18.60;99.90
25410;DHT22;13339;50.840;4.346;2023-07-30T05:07:51;18.70;99.90
25410;DHT22;13339;50.840;4.346;2023-07-30T05:10:17;18.70;99.90
25410;DHT22;13339;50.840;4.346;2023-07-30T05:12:43;18.70;99.90
25410;DHT22;13339;50.840;4.346;2023-07-30T05:15:08;18.70;99.90
25410;DHT22;13339;50.840;4.346;2023-07-30T05:17:34;18.70;99.90
25410;DHT22;13339;50.840;4.346;2023-07-30T05:20:00;18.70;99.90
25410;DHT22;13339;50.840;4.346;2023-07-30T05:22:25;18.70;99.90
25410;DHT22;13339;50.840;4.346;2023-07-30T05:24:51;18.70;99.90
25410;DHT22;13339;50.840;4.346;2023-07-30T05:27:16;18.60;99.90
25410;DHT22;13339;50.840;4.346;2023-07-30T05:29:42;18.70;99.90
25410;DHT22;13339;50.840;4.346;2023-07-30T05:32:08;18.80;99.90
25410;DHT22;13339;50.840;4.346;2023-07-30T05:34:34;18.70;99.90
25410;DHT22;13339;50.840;4.346;2023-07-30T05:37:00;18.70;99.90
25410;DHT22;13339;50.840;4.346;2023-07-30T05:39:26;18.70;99.90
25410;DHT22;13339;50.840;4.346;2023-07-30T05:41:51;18.70;99.90
25410;DHT22;13339;50.840;4.346;2023-07-30T05:44:17;18.80;99.90
25410;DHT22;13339;50.840;4.346;2023-07-30T05:46:43;18.80;99.90
25410;DHT22;13339;50.840;4.346;2023-07-30T05:49:08;18.60;99.90
25410;DHT22;13339;50.840;4.346;2023-07-30T05:51:34;18.60;99.90
25410;DHT22;13339;50.840;4.346;2023-07-30T05:53:59;18.70;99.90
25410;DHT22;13339;50.840;4.346;2023-07-30T05:56:25;18.80;99.90
25410;DHT22;13339;50.840;4.346;2023-07-30T05:58:51;18.80;99.90
25410;DHT22;13339;50.840;4.346;2023-07-30T06:01:16;18.80;99.90
25410;DHT22;13339;50.840;4.346;2023-07-30T06:03:42;18.70;99.90
25410;DHT22;13339;50.840;4.346;2023-07-30T06:06:08;18.80;99.90
25410;DHT22;13339;50.840;4.346;2023-07-30T06:08:33;18.80;99.90
25410;DHT22;13339;50.840;4.346;2023-07-30T06:11:03;18.90;99.90
25410;DHT22;13339;50.840;4.346;2023-07-30T06:13:29;18.80;99.90
25410;DHT22;13339;50.840;4.346;2023-07-30T06:15:54;18.80;99.90
25410;DHT22;13339;50.840;4.346;2023-07-30T06:18:21;18.90;99.90
25410;DHT22;13339;50.840;4.346;2023-07-30T06:20:46;18.80;99.90
25410;DHT22;13339;50.840;4.346;2023-07-30T06:23:12;18.80;99.90
25410;DHT22;13339;50.840;4.346;2023-07-30T06:25:37;18.90;99.90
25410;DHT22;13339;50.840;4.346;2023-07-30T06:28:05;19.00;99.90
25410;DHT22;13339;50.840;4.346;2023-07-30T06:30:31;18.90;99.90
25410;DHT22;13339;50.840;4.346;2023-07-30T06:32:57;18.90;99.90
25410;DHT22;13339;50.840;4.346;2023-07-30T06:35:23;19.00;99.90
25410;DHT22;13339;50.840;4.346;2023-07-30T06:37:50;19.10;99.90
25410;DHT22;13339;50.840;4.346;2023-07-30T06:40:16;19.10;99.90
25410;DHT22;13339;50.840;4.346;2023-07-30T06:42:41;19.20;99.90
25410;DHT22;13339;50.840;4.346;2023-07-30T06:45:07;19.30;99.90
25410;DHT22;13339;50.840;4.346;2023-07-30T06:47:33;19.40;99.90
25410;DHT22;13339;50.840;4.346;2023-07-30T06:49:59;19.40;99.90
25410;DHT22;13339;50.840;4.346;2023-07-30T06:52:24;19.20;99.90
25410;DHT22;13339;50.840;4.346;2023-07-30T06:54:50;19.10;99.90
25410;DHT22;13339;50.840;4.346;2023-07-30T06:57:15;19.10;99.90
25410;DHT22;13339;50.840;4.346;2023-07-30T06:59:41;19.10;99.90
25410;DHT22;13339;50.840;4.346;2023-07-30T07:02:07;19.00;99.90
25410;DHT22;13339;50.840;4.346;2023-07-30T07:04:32;19.10;99.90
25410;DHT22;13339;50.840;4.346;2023-07-30T07:06:58;19.10;99.90
25410;DHT22;13339;50.840;4.346;2023-07-30T07:09:24;19.20;99.90
25410;DHT22;13339;50.840;4.346;2023-07-30T07:11:49;19.40;99.90
25410;DHT22;13339;50.840;4.346;2023-07-30T07:14:15;19.60;99.90
25410;DHT22;13339;50.840;4.346;2023-07-30T07:16:40;19.70;99.90
25410;DHT22;13339;50.840;4.346;2023-07-30T07:19:06;19.60;99.90
25410;DHT22;13339;50.840;4.346;2023-07-30T07:21:31;19.70;99.90
25410;DHT22;13339;50.840;4.346;2023-07-30T07:23:57;19.80;99.90
25410;DHT22;13339;50.840;4.346;2023-07-30T07:26:23;19.90;99.90
25410;DHT22;13339;50.840;4.346;2023-07-30T07:28:48;19.90;99.90
25410;DHT22;13339;50.840;4.346;2023-07-30T07:31:14;20.10;99.90
25410;DHT22;13339;50.840;4.346;2023-07-30T07:33:39;20.20;99.90
25410;DHT22;13339;50.840;4.346;2023-07-30T07:36:07;20.30;99.90
25410;DHT22;13339;50.840;4.346;2023-07-30T07:38:33;20.30;99.90
25410;DHT22;13339;50.840;4.346;2023-07-30T07:40:59;20.50;99.90
25410;DHT22;13339;50.840;4.346;2023-07-30T07:43:25;20.40;99.90
25410;DHT22;13339;50.840;4.346;2023-07-30T07:45:51;20.50;99.90
25410;DHT22;13339;50.840;4.346;2023-07-30T07:48:17;20.50;99.90
25410;DHT22;13339;50.840;4.346;2023-07-30T07:50:42;20.70;99.90
25410;DHT22;13339;50.840;4.346;2023-07-30T07:53:08;20.70;99.90
25410;DHT22;13339;50.840;4.346;2023-07-30T07:55:34;20.80;99.90
25410;DHT22;13339;50.840;4.346;2023-07-30T07:57:59;20.80;99.90
25410;DHT22;13339;50.840;4.346;2023-07-30T08:00:25;20.80;99.90
25410;DHT22;13339;50.840;4.346;2023-07-30T08:02:50;21.10;99.90
25410;DHT22;13339;50.840;4.346;2023-07-30T08:05:16;21.20;99.90
25410;DHT22;13339;50.840;4.346;2023-07-30T08:07:45;21.20;99.90
25410;DHT22;13339;50.840;4.346;2023-07-30T08:10:11;21.30;99.90
25410;DHT22;13339;50.840;4.346;2023-07-30T08:12:37;21.20;99.90
25410;DHT22;13339;50.840;4.346;2023-07-30T08:15:02;21.40;99.90
25410;DHT22;13339;50.840;4.346;2023-07-30T08:17:28;21.40;99.90
25410;DHT22;13339;50.840;4.346;2023-07-30T08:19:54;21.40;99.90
25410;DHT22;13339;50.840;4.346;2023-07-30T08:22:20;21.50;99.90
25410;DHT22;13339;50.840;4.346;2023-07-30T08:24:45;21.60;99.90
25410;DHT22;13339;50.840;4.346;2023-07-30T08:27:11;21.60;99.90
25410;DHT22;13339;50.840;4.346;2023-07-30T08:29:36;21.60;99.90
25410;DHT22;13339;50.840;4.346;2023-07-30T08:32:02;21.60;99.90
25410;DHT22;13339;50.840;4.346;2023-07-30T08:34:28;21.70;99.90
25410;DHT22;13339;50.840;4.346;2023-07-30T08:36:53;21.80;99.90
25410;DHT22;13339;50.840;4.346;2023-07-30T08:39:19;21.90;99.90
25410;DHT22;13339;50.840;4.346;2023-07-30T08:41:45;22.00;99.90
25410;DHT22;13339;50.840;4.346;2023-07-30T08:44:13;22.00;99.90
25410;DHT22;13339;50.840;4.346;2023-07-30T08:46:38;22.00;99.90
25410;DHT22;13339;50.840;4.346;2023-07-30T08:49:04;22.10;99.90
25410;DHT22;13339;50.840;4.346;2023-07-30T08:51:31;22.10;99.90
25410;DHT22;13339;50.840;4.346;2023-07-30T08:54:00;22.10;99.90
25410;DHT22;13339;50.840;4.346;2023-07-30T08:56:27;22.00;99.90
25410;DHT22;13339;50.840;4.346;2023-07-30T08:58:53;21.90;99.90
25410;DHT22;13339;50.840;4.346;2023-07-30T09:01:24;21.80;99.90
25410;DHT22;13339;50.840;4.346;2023-07-30T09:03:52;21.70;99.90
25410;DHT22;13339;50.840;4.346;2023-07-30T09:06:18;21.50;99.90
25410;DHT22;13339;50.840;4.346;2023-07-30T09:08:43;21.50;99.90
25410;DHT22;13339;50.840;4.346;2023-07-30T09:11:10;21.40;99.90
25410;DHT22;13339;50.840;4.346;2023-07-30T09:13:40;21.30;99.90
25410;DHT22;13339;50.840;4.346;2023-07-30T09:16:14;21.40;99.90
25410;DHT22;13339;50.840;4.346;2023-07-30T09:18:44;21.50;99.90
25410;DHT22;13339;50.840;4.346;2023-07-30T09:21:11;21.40;99.90
25410;DHT22;13339;50.840;4.346;2023-07-30T09:23:41;21.30;99.90
25410;DHT22;13339;50.840;4.346;2023-07-30T09:26:08;21.20;99.90
25410;DHT22;13339;50.840;4.346;2023-07-30T09:28:33;21.30;99.90
25410;DHT22;13339;50.840;4.346;2023-07-30T09:31:06;21.40;99.90
25410;DHT22;13339;50.840;4.346;2023-07-30T09:33:32;21.40;99.90
25410;DHT22;13339;50.840;4.346;2023-07-30T09:36:02;21.50;99.90
25410;DHT22;13339;50.840;4.346;2023-07-30T09:38:27;21.70;99.90
25410;DHT22;13339;50.840;4.346;2023-07-30T09:41:00;21.70;99.90
25410;DHT22;13339;50.840;4.346;2023-07-30T09:43:32;21.70;99.90
25410;DHT22;13339;50.840;4.346;2023-07-30T09:46:02;21.70;99.90
25410;DHT22;13339;50.840;4.346;2023-07-30T09:48:32;21.70;99.90
25410;DHT22;13339;50.840;4.346;2023-07-30T09:51:02;21.50;99.90
25410;DHT22;13339;50.840;4.346;2023-07-30T09:53:32;21.50;99.90
25410;DHT22;13339;50.840;4.346;2023-07-30T09:56:03;21.30;99.90
25410;DHT22;13339;50.840;4.346;2023-07-30T09:58:30;21.10;99.90
25410;DHT22;13339;50.840;4.346;2023-07-30T10:00:58;21.10;99.90
25410;DHT22;13339;50.840;4.346;2023-07-30T10:03:25;21.20;99.90
25410;DHT22;13339;50.840;4.346;2023-07-30T10:05:53;21.20;99.90
25410;DHT22;13339;50.840;4.346;2023-07-30T10:08:23;21.10;99.90
25410;DHT22;13339;50.840;4.346;2023-07-30T10:10:50;21.10;99.90
25410;DHT22;13339;50.840;4.346;2023-07-30T10:13:18;21.10;99.90
25410;DHT22;13339;50.840;4.346;2023-07-30T10:15:44;21.30;99.90
25410;DHT22;13339;50.840;4.346;2023-07-30T10:18:11;21.40;99.90
25410;DHT22;13339;50.840;4.346;2023-07-30T10:20:37;21.60;99.90
25410;DHT22;13339;50.840;4.346;2023-07-30T10:23:04;21.80;99.90
25410;DHT22;13339;50.840;4.346;2023-07-30T10:25:43;22.00;99.90
25410;DHT22;13339;50.840;4.346;2023-07-30T10:28:35;22.10;99.90
25410;DHT22;13339;50.840;4.346;2023-07-30T10:31:06;22.00;99.90
25410;DHT22;13339;50.840;4.346;2023-07-30T10:33:47;22.20;99.90
25410;DHT22;13339;50.840;4.346;2023-07-30T10:36:41;22.40;99.90
25410;DHT22;13339;50.840;4.346;2023-07-30T10:39:26;22.70;99.90
25410;DHT22;13339;50.840;4.346;2023-07-30T10:41:58;22.80;99.90
25410;DHT22;13339;50.840;4.346;2023-07-30T10:44:29;22.80;99.90
25410;DHT22;13339;50.840;4.346;2023-07-30T10:46:57;22.70;99.90
25410;DHT22;13339;50.840;4.346;2023-07-30T10:49:23;22.50;99.90
25410;DHT22;13339;50.840;4.346;2023-07-30T10:51:49;22.50;99.90
25410;DHT22;13339;50.840;4.346;2023-07-30T10:54:16;22.50;99.90
25410;DHT22;13339;50.840;4.346;2023-07-30T10:56:42;22.50;99.90
25410;DHT22;13339;50.840;4.346;2023-07-30T10:59:09;22.60;99.90
25410;DHT22;13339;50.840;4.346;2023-07-30T11:01:39;22.60;99.90
25410;DHT22;13339;50.840;4.346;2023-07-30T11:04:19;22.70;99.90
25410;DHT22;13339;50.840;4.346;2023-07-30T11:06:46;22.80;99.90
25410;DHT22;13339;50.840;4.346;2023-07-30T11:09:26;22.80;99.90
25410;DHT22;13339;50.840;4.346;2023-07-30T11:11:54;22.90;99.90
25410;DHT22;13339;50.840;4.346;2023-07-30T11:14:22;23.00;99.90
25410;DHT22;13339;50.840;4.346;2023-07-30T11:16:52;23.10;99.90
25410;DHT22;13339;50.840;4.346;2023-07-30T11:19:18;23.20;99.90
25410;DHT22;13339;50.840;4.346;2023-07-30T11:21:48;23.30;99.90
25410;DHT22;13339;50.840;4.346;2023-07-30T11:24:14;23.40;99.90
25410;DHT22;13339;50.840;4.346;2023-07-30T11:26:40;23.60;99.90
25410;DHT22;13339;50.840;4.346;2023-07-30T11:29:19;23.80;99.90
25410;DHT22;13339;50.840;4.346;2023-07-30T11:31:46;24.00;99.90
25410;DHT22;13339;50.840;4.346;2023-07-30T11:34:16;24.10;99.90
25410;DHT22;13339;50.840;4.346;2023-07-30T11:36:43;24.20;99.90
25410;DHT22;13339;50.840;4.346;2023-07-30T11:39:10;24.20;99.90
25410;DHT22;13339;50.840;4.346;2023-07-30T11:41:36;24.40;99.90
25410;DHT22;13339;50.840;4.346;2023-07-30T11:44:02;24.70;99.90
25410;DHT22;13339;50.840;4.346;2023-07-30T11:46:28;24.80;99.90
25410;DHT22;13339;50.840;4.346;2023-07-30T11:49:11;24.90;99.90
25410;DHT22;13339;50.840;4.346;2023-07-30T11:51:37;24.90;99.90
25410;DHT22;13339;50.840;4.346;2023-07-30T11:54:03;24.90;99.90
25410;DHT22;13339;50.840;4.346;2023-07-30T11:56:32;25.00;99.90
25410;DHT22;13339;50.840;4.346;2023-07-30T11:59:05;25.10;99.90
25410;DHT22;13339;50.840;4.346;2023-07-30T12:01:32;25.10;99.90
25410;DHT22;13339;50.840;4.346;2023-07-30T12:04:01;25.20;99.90
25410;DHT22;13339;50.840;4.346;2023-07-30T12:06:49;25.00;99.90
25410;DHT22;13339;50.840;4.346;2023-07-30T12:11:59;24.80;99.90
25410;DHT22;13339;50.840;4.346;2023-07-30T12:14:29;24.70;99.90
25410;DHT22;13339;50.840;4.346;2023-07-30T12:17:07;24.70;99.90
25410;DHT22;13339;50.840;4.346;2023-07-30T12:19:33;24.70;99.90
25410;DHT22;13339;50.840;4.346;2023-07-30T12:21:58;24.70;99.90
25410;DHT22;13339;50.840;4.346;2023-07-30T12:24:24;24.60;99.90
25410;DHT22;13339;50.840;4.346;2023-07-30T12:26:49;24.50;99.90
25410;DHT22;13339;50.840;4.346;2023-07-30T12:29:15;24.50;99.90
25410;DHT22;13339;50.840;4.346;2023-07-30T12:31:40;24.60;99.90
25410;DHT22;13339;50.840;4.346;2023-07-30T12:34:06;24.40;99.90
25410;DHT22;13339;50.840;4.346;2023-07-30T12:36:32;24.50;99.90
25410;DHT22;13339;50.840;4.346;2023-07-30T12:38:57;24.60;99.90
25410;DHT22;13339;50.840;4.346;2023-07-30T12:41:23;24.50;99.90
25410;DHT22;13339;50.840;4.346;2023-07-30T12:43:55;24.40;99.90
25410;DHT22;13339;50.840;4.346;2023-07-30T12:46:22;24.40;99.90
25410;DHT22;13339;50.840;4.346;2023-07-30T12:48:48;24.40;99.90
25410;DHT22;13339;50.840;4.346;2023-07-30T12:51:14;24.50;99.90
25410;DHT22;13339;50.840;4.346;2023-07-30T12:53:40;24.60;99.90
25410;DHT22;13339;50.840;4.346;2023-07-30T12:56:05;24.70;99.90
25410;DHT22;13339;50.840;4.346;2023-07-30T12:58:31;24.70;99.90
25410;DHT22;13339;50.840;4.346;2023-07-30T13:00:56;24.90;99.90
25410;DHT22;13339;50.840;4.346;2023-07-30T13:03:22;25.10;99.90
25410;DHT22;13339;50.840;4.346;2023-07-30T13:05:48;25.40;99.90
25410;DHT22;13339;50.840;4.346;2023-07-30T13:08:13;25.50;99.90
25410;DHT22;13339;50.840;4.346;2023-07-30T13:10:39;25.50;99.90
25410;DHT22;13339;50.840;4.346;2023-07-30T13:13:04;25.50;99.90
25410;DHT22;13339;50.840;4.346;2023-07-30T13:15:30;25.50;99.90
25410;DHT22;13339;50.840;4.346;2023-07-30T13:17:57;25.60;99.90
25410;DHT22;13339;50.840;4.346;2023-07-30T13:20:22;25.50;99.90
25410;DHT22;13339;50.840;4.346;2023-07-30T13:22:49;25.50;99.90
25410;DHT22;13339;50.840;4.346;2023-07-30T13:25:15;25.60;99.90
25410;DHT22;13339;50.840;4.346;2023-07-30T13:27:41;25.40;99.90
25410;DHT22;13339;50.840;4.346;2023-07-30T13:30:07;25.30;99.90
25410;DHT22;13339;50.840;4.346;2023-07-30T13:32:32;25.40;99.90
25410;DHT22;13339;50.840;4.346;2023-07-30T13:34:58;25.40;99.90
25410;DHT22;13339;50.840;4.346;2023-07-30T13:37:24;25.40;99.90
25410;DHT22;13339;50.840;4.346;2023-07-30T13:39:49;25.30;99.90
25410;DHT22;13339;50.840;4.346;2023-07-30T13:42:15;25.20;99.90
25410;DHT22;13339;50.840;4.346;2023-07-30T13:44:40;25.20;99.90
25410;DHT22;13339;50.840;4.346;2023-07-30T13:47:07;25.20;99.90
25410;DHT22;13339;50.840;4.346;2023-07-30T13:49:33;25.30;99.90
25410;DHT22;13339;50.840;4.346;2023-07-30T13:51:58;25.30;99.90
25410;DHT22;13339;50.840;4.346;2023-07-30T13:54:24;25.10;99.90
25410;DHT22;13339;50.840;4.346;2023-07-30T13:56:49;25.00;99.90
25410;DHT22;13339;50.840;4.346;2023-07-30T13:59:15;25.00;99.90
25410;DHT22;13339;50.840;4.346;2023-07-30T14:01:40;25.00;99.90
25410;DHT22;13339;50.840;4.346;2023-07-30T14:04:06;25.00;99.90
25410;DHT22;13339;50.840;4.346;2023-07-30T14:06:32;25.00;99.90
25410;DHT22;13339;50.840;4.346;2023-07-30T14:08:57;25.10;99.90
25410;DHT22;13339;50.840;4.346;2023-07-30T14:11:26;25.10;99.90
25410;DHT22;13339;50.840;4.346;2023-07-30T14:13:51;25.10;99.90
25410;DHT22;13339;50.840;4.346;2023-07-30T14:16:17;25.10;99.90
25410;DHT22;13339;50.840;4.346;2023-07-30T14:18:42;25.10;99.90
25410;DHT22;13339;50.840;4.346;2023-07-30T14:21:08;25.10;99.90
25410;DHT22;13339;50.840;4.346;2023-07-30T14:23:34;25.00;99.90
25410;DHT22;13339;50.840;4.346;2023-07-30T14:25:59;25.00;99.90
25410;DHT22;13339;50.840;4.346;2023-07-30T14:28:26;24.80;99.90
25410;DHT22;13339;50.840;4.346;2023-07-30T14:30:51;24.80;99.90
25410;DHT22;13339;50.840;4.346;2023-07-30T14:33:17;24.90;99.90
25410;DHT22;13339;50.840;4.346;2023-07-30T14:35:43;24.90;99.90
25410;DHT22;13339;50.840;4.346;2023-07-30T14:38:08;25.00;99.90
25410;DHT22;13339;50.840;4.346;2023-07-30T14:40:35;24.80;99.90
25410;DHT22;13339;50.840;4.346;2023-07-30T14:43:00;24.70;99.90
25410;DHT22;13339;50.840;4.346;2023-07-30T14:45:26;24.70;99.90
25410;DHT22;13339;50.840;4.346;2023-07-30T14:47:51;24.70;99.90
25410;DHT22;13339;50.840;4.346;2023-07-30T14:50:17;24.60;99.90
25410;DHT22;13339;50.840;4.346;2023-07-30T14:52:42;24.50;99.90
25410;DHT22;13339;50.840;4.346;2023-07-30T14:55:09;24.40;99.90
25410;DHT22;13339;50.840;4.346;2023-07-30T14:57:35;24.30;99.90
25410;DHT22;13339;50.840;4.346;2023-07-30T15:00:00;24.20;99.90
25410;DHT22;13339;50.840;4.346;2023-07-30T15:02:26;24.10;99.90
25410;DHT22;13339;50.840;4.346;2023-07-30T15:04:53;23.90;99.90
25410;DHT22;13339;50.840;4.346;2023-07-30T15:07:19;23.90;99.90
25410;DHT22;13339;50.840;4.346;2023-07-30T15:09:44;23.90;99.90
25410;DHT22;13339;50.840;4.346;2023-07-30T15:12:12;23.80;99.90
25410;DHT22;13339;50.840;4.346;2023-07-30T15:14:37;23.90;99.90
25410;DHT22;13339;50.840;4.346;2023-07-30T15:17:03;24.00;99.90
25410;DHT22;13339;50.840;4.346;2023-07-30T15:19:29;23.90;99.90
25410;DHT22;13339;50.840;4.346;2023-07-30T15:21:55;23.90;99.90
25410;DHT22;13339;50.840;4.346;2023-07-30T15:24:20;23.80;99.90
25410;DHT22;13339;50.840;4.346;2023-07-30T15:26:46;23.60;99.90
25410;DHT22;13339;50.840;4.346;2023-07-30T15:29:12;23.60;99.90